Time;durP1;ratioP1;P1;durP2;ratioP2;P2;SDS_P1;SDS_P2;PMS_P1;PMS_P2;Temp;Humidity;BMP_temperature;BMP_pressure;BME280_temperature;BME280_humidity;BME280_pressure;Samples;Min_cycle;Max_cycle;Signal;HPM_P1;HPM_P2
2023/01/19 00:01:17;;;;;;;;;;;;;;;-0.46;93.44;99505.00;5026753;28;19929;-65
2023/01/19 00:03:43;;;;;;;;;;;;;;;-0.50;93.99;99490.34;5043671;28;19928;-65
2023/01/19 00:06:09;;;;;;;;;;;;;;;-0.52;94.43;99489.75;5046496;28;20278;-67
2023/01/19 00:08:35;;;;;;;;;;;;;;;-0.52;94.90;99498.59;5046107;28;20456;-67
2023/01/19 00:11:01;;;;;;;;;;;;;;;-0.55;95.18;99487.44;5044777;28;20332;-67
2023/01/19 00:13:26;;;;;;;;;;;;;;;-0.80;95.28;99445.97;5043599;28;19929;-67
2023/01/19 00:15:52;;;;;;;;;;;;;;;-0.57;95.50;99485.81;5045274;28;20305;-67
2023/01/19 00:18:19;;;;;;;;;;;;;;;-0.55;95.79;99482.09;5044653;28;20061;-67
2023/01/19 00:20:46;;;;;;;;;;;;;;;-0.61;96.04;99481.88;5043555;28;20414;-67
2023/01/19 00:23:12;;;;;;;;;;;;;;;-0.61;96.47;99473.03;5042519;28;20446;-67
2023/01/19 00:25:44;;;;;;;;;;;;;;;-0.61;96.82;99467.66;5046471;28;20024;-67
2023/01/19 00:28:10;;;;;;;;;;;;;;;-0.66;97.25;99481.69;5044534;28;20392;-68
2023/01/19 00:30:36;;;;;;;;;;;;;;;-0.67;97.67;99484.59;5048094;28;19928;-68
2023/01/19 00:33:02;;;;;;;;;;;;;;;-0.67;98.15;99487.28;5044613;28;19929;-68
2023/01/19 00:35:29;;;;;;;;;;;;;;;-0.69;98.36;99500.94;5044293;28;20037;-68
2023/01/19 00:37:55;;;;;;;;;;;;;;;-0.71;98.81;99502.97;5045680;28;19928;-68
2023/01/19 00:40:21;;;;;;;;;;;;;;;-0.73;98.85;99503.19;5044716;28;20373;-68
2023/01/19 00:42:47;;;;;;;;;;;;;;;-0.73;99.00;99491.59;5045721;28;19932;-68
2023/01/19 00:45:13;;;;;;;;;;;;;;;-0.72;99.23;99494.09;5046922;28;20427;-68
2023/01/19 00:47:40;;;;;;;;;;;;;;;-0.70;99.15;99498.44;5023549;28;19929;-68
2023/01/19 00:50:06;;;;;;;;;;;;;;;-0.72;98.97;99480.69;5040243;28;19928;-68
2023/01/19 00:52:34;;;;;;;;;;;;;;;-0.70;98.98;99499.28;5044896;28;20396;-68
2023/01/19 00:54:59;;;;;;;;;;;;;;;-0.69;98.82;99486.66;5042543;28;20495;-67
2023/01/19 00:57:26;;;;;;;;;;;;;;;-0.70;98.79;99485.84;5045348;28;20031;-67
2023/01/19 00:59:52;;;;;;;;;;;;;;;-0.67;98.68;99485.44;5027214;28;19929;-67
2023/01/19 01:02:18;;;;;;;;;;;;;;;-0.67;98.38;99479.22;5046759;28;19929;-67
2023/01/19 01:04:43;;;;;;;;;;;;;;;-0.66;98.41;99470.13;5026150;28;19928;-68
2023/01/19 01:07:09;;;;;;;;;;;;;;;-0.66;98.31;99472.81;5043703;28;19928;-67
2023/01/19 01:09:36;;;;;;;;;;;;;;;-0.69;98.27;99470.53;5045954;28;19979;-67
2023/01/19 01:12:02;;;;;;;;;;;;;;;-0.65;98.24;99466.41;5046485;28;19929;-68
2023/01/19 01:14:28;;;;;;;;;;;;;;;-0.63;98.03;99496.56;5044232;28;20023;-67
2023/01/19 01:16:54;;;;;;;;;;;;;;;-0.66;97.96;99481.69;5042949;28;20471;-67
2023/01/19 01:19:20;;;;;;;;;;;;;;;-0.67;97.59;99468.47;5042273;28;20027;-67
2023/01/19 01:21:46;;;;;;;;;;;;;;;-0.66;97.66;99473.66;5047058;28;19929;-68
2023/01/19 01:24:12;;;;;;;;;;;;;;;-0.63;97.57;99467.84;5043339;28;19929;-68
2023/01/19 01:26:39;;;;;;;;;;;;;;;-0.61;97.43;99473.03;5042074;28;19953;-67
2023/01/19 01:29:05;;;;;;;;;;;;;;;-0.63;97.36;99475.91;5042902;28;20400;-67
2023/01/19 01:31:31;;;;;;;;;;;;;;;-0.63;97.24;99458.97;5045358;28;19979;-67
2023/01/19 01:33:56;;;;;;;;;;;;;;;-0.62;97.46;99469.50;5027489;28;19951;-67
2023/01/19 01:36:22;;;;;;;;;;;;;;;-0.62;97.43;99471.38;5039935;28;20031;-67
2023/01/19 01:38:48;;;;;;;;;;;;;;;-0.61;97.34;99478.41;5042733;28;19929;-67
2023/01/19 01:41:14;;;;;;;;;;;;;;;-0.61;97.52;99467.66;5042683;28;20386;-66
2023/01/19 01:43:46;;;;;;;;;;;;;;;-0.63;97.60;99465.16;5042182;28;19967;-65
2023/01/19 01:46:14;;;;;;;;;;;;;;;-0.60;97.58;99459.38;5044106;28;19935;-65
2023/01/19 01:48:40;;;;;;;;;;;;;;;-0.62;97.44;99469.50;5041788;28;19960;-65
2023/01/19 01:51:23;;;;;;;;;;;;;;;-0.63;97.34;99486.66;5045282;28;19929;-66
2023/01/19 01:53:51;;;;;;;;;;;;;;;-0.62;97.07;99480.25;5044517;28;20463;-66
2023/01/19 01:56:20;;;;;;;;;;;;;;;-0.60;97.31;99482.72;5043746;28;20292;-66
2023/01/19 01:58:47;;;;;;;;;;;;;;;-0.58;97.01;99484.16;5042231;28;19929;-66
2023/01/19 02:03:57;;;;;;;;;;;;;;;-0.53;97.05;99486.22;5042324;28;20317;-65
2023/01/19 02:06:23;;;;;;;;;;;;;;;-0.52;97.08;99492.44;5041872;28;20118;-66
2023/01/19 02:14:21;;;;;;;;;;;;;;;-0.51;97.35;99476.09;5028214;28;19929;-66
2023/01/19 02:16:47;;;;;;;;;;;;;;;-0.52;97.40;99471.75;5011610;28;20035;-68
2023/01/19 02:19:16;;;;;;;;;;;;;;;-0.51;97.61;99465.34;5007717;28;20040;-66
2023/01/19 02:21:45;;;;;;;;;;;;;;;-0.49;97.43;99460.59;5043911;28;19929;-65
2023/01/19 02:24:13;;;;;;;;;;;;;;;-0.48;97.47;99462.22;5040115;28;20422;-66
2023/01/19 02:26:40;;;;;;;;;;;;;;;-0.46;97.68;99481.66;5042333;28;19936;-66
2023/01/19 02:29:07;;;;;;;;;;;;;;;-0.43;97.48;99457.06;5041843;28;19928;-66
2023/01/19 02:31:34;;;;;;;;;;;;;;;-0.40;97.48;99457.69;5041402;28;19929;-67
2023/01/19 02:34:00;;;;;;;;;;;;;;;-0.41;97.62;99456.03;5022986;28;19929;-65
2023/01/19 02:36:29;;;;;;;;;;;;;;;-0.41;97.82;99435.34;5039953;28;19967;-66
2023/01/19 02:38:55;;;;;;;;;;;;;;;-0.44;98.09;99455.41;5043135;28;19976;-65
2023/01/19 02:41:25;;;;;;;;;;;;;;;-0.44;97.96;99454.59;5044608;28;19971;-66
2023/01/19 02:43:51;;;;;;;;;;;;;;;-0.48;98.42;99454.16;5024901;28;19932;-66
2023/01/19 02:46:17;;;;;;;;;;;;;;;-0.47;98.46;99476.50;5046723;28;19964;-66
2023/01/19 02:48:43;;;;;;;;;;;;;;;-0.50;98.42;99474.25;5029840;28;20371;-66
2023/01/19 02:51:11;;;;;;;;;;;;;;;-0.50;98.66;99467.00;5012945;28;19929;-67
2023/01/19 02:53:46;;;;;;;;;;;;;;;-0.50;99.03;99476.94;5046704;28;20455;-67
2023/01/19 02:56:23;;;;;;;;;;;;;;;-0.50;98.93;99480.41;5046525;28;20499;-66
2023/01/19 02:58:55;;;;;;;;;;;;;;;-0.52;98.81;99470.94;5048481;28;19935;-66
2023/01/19 03:01:26;;;;;;;;;;;;;;;-0.67;98.81;99452.34;5046576;28;19929;-67
2023/01/19 03:03:55;;;;;;;;;;;;;;;-0.73;98.96;99433.38;5047407;28;19932;-67
2023/01/19 03:06:31;;;;;;;;;;;;;;;-0.59;98.89;99476.31;5044622;28;20051;-67
2023/01/19 03:09:01;;;;;;;;;;;;;;;-0.57;99.01;99483.13;5047862;28;19929;-68
2023/01/19 03:11:29;;;;;;;;;;;;;;;-0.57;98.77;99458.94;5047238;28;20427;-68
2023/01/19 03:13:59;;;;;;;;;;;;;;;-0.55;98.58;99471.34;5046470;28;19960;-68
2023/01/19 03:16:29;;;;;;;;;;;;;;;-0.57;98.36;99463.50;5044113;28;19936;-68
2023/01/19 03:18:57;;;;;;;;;;;;;;;-0.59;98.56;99481.69;5045912;28;20475;-68
2023/01/19 03:21:25;;;;;;;;;;;;;;;-0.60;98.51;99480.84;5046864;28;20015;-68
2023/01/19 03:23:53;;;;;;;;;;;;;;;-0.61;98.31;99486.47;5047280;28;19929;-68
2023/01/19 03:26:23;;;;;;;;;;;;;;;-0.61;98.31;99467.66;5048906;28;19929;-68
2023/01/19 03:28:50;;;;;;;;;;;;;;;-0.55;98.36;99469.50;5045262;28;19928;-68
2023/01/19 03:31:19;;;;;;;;;;;;;;;-0.59;98.17;99469.06;5046639;28;19928;-67
2023/01/19 03:33:48;;;;;;;;;;;;;;;-0.62;97.91;99493.66;5046253;28;19933;-68
2023/01/19 03:36:15;;;;;;;;;;;;;;;-0.61;97.98;99494.50;5010673;28;20431;-68
2023/01/19 03:38:43;;;;;;;;;;;;;;;-0.61;98.00;99506.06;5047957;28;19936;-68
2023/01/19 03:41:12;;;;;;;;;;;;;;;-0.63;97.93;99516.19;5046904;28;20351;-68
2023/01/19 03:43:39;;;;;;;;;;;;;;;-0.57;97.96;99522.59;5046669;28;20336;-68
2023/01/19 03:46:05;;;;;;;;;;;;;;;-0.53;98.05;99517.66;5046464;28;20265;-67
2023/01/19 03:48:32;;;;;;;;;;;;;;;-0.53;97.58;99531.88;5045218;28;20375;-67
2023/01/19 03:51:01;;;;;;;;;;;;;;;-0.53;97.65;99520.31;5012774;28;20387;-66
2023/01/19 03:53:27;;;;;;;;;;;;;;;-0.54;97.28;99514.13;5046219;28;20185;-66
2023/01/19 03:55:53;;;;;;;;;;;;;;;-0.57;97.45;99526.09;5044227;28;19933;-67
2023/01/19 03:58:21;;;;;;;;;;;;;;;-0.53;97.25;99531.06;5043106;28;19936;-66
2023/01/19 04:00:47;;;;;;;;;;;;;;;-0.59;97.42;99519.28;5045638;28;20019;-66
2023/01/19 04:03:14;;;;;;;;;;;;;;;-0.57;97.94;99518.03;5026956;28;20463;-66
2023/01/19 04:05:41;;;;;;;;;;;;;;;-0.70;98.07;99534.19;5044391;28;19929;-66
2023/01/19 04:08:07;;;;;;;;;;;;;;;-0.57;98.41;99544.91;5026558;28;19939;-67
2023/01/19 04:10:33;;;;;;;;;;;;;;;-0.58;98.64;99542.44;5044604;28;19935;-66
2023/01/19 04:12:59;;;;;;;;;;;;;;;-0.55;99.06;99533.13;5044033;28;20288;-66
2023/01/19 04:15:25;;;;;;;;;;;;;;;-0.55;99.10;99546.53;5044258;28;19929;-66
2023/01/19 04:17:51;;;;;;;;;;;;;;;-0.57;99.16;99552.94;5042872;28;20420;-66
2023/01/19 04:20:17;;;;;;;;;;;;;;;-0.55;99.42;99573.41;5042072;28;19971;-66
2023/01/19 04:22:45;;;;;;;;;;;;;;;-0.52;99.32;99581.88;5044680;28;19929;-66
2023/01/19 04:25:11;;;;;;;;;;;;;;;-0.51;99.30;99569.28;5044443;28;19958;-66
2023/01/19 04:27:37;;;;;;;;;;;;;;;-0.47;99.39;99574.06;5042932;28;19929;-67
2023/01/19 04:30:04;;;;;;;;;;;;;;;-0.41;99.18;99585.00;5044475;28;20364;-67
2023/01/19 04:32:31;;;;;;;;;;;;;;;-0.41;99.17;99588.47;5045739;28;19929;-67
2023/01/19 04:34:56;;;;;;;;;;;;;;;-0.37;99.00;99588.91;5044405;28;19950;-67
2023/01/19 04:37:22;;;;;;;;;;;;;;;-0.37;98.57;99578.16;5049711;28;19928;-67
2023/01/19 04:39:49;;;;;;;;;;;;;;;-0.36;98.40;99558.31;5051957;28;19935;-66
2023/01/19 04:42:15;;;;;;;;;;;;;;;-0.40;98.21;99563.28;5054139;28;19936;-67
2023/01/19 04:44:41;;;;;;;;;;;;;;;-0.40;98.12;99571.31;5046407;28;19928;-67
2023/01/19 04:47:07;;;;;;;;;;;;;;;-0.37;98.22;99575.47;5048732;28;20453;-67
2023/01/19 04:49:36;;;;;;;;;;;;;;;-0.34;98.17;99577.72;5051703;28;20352;-67
2023/01/19 04:52:02;;;;;;;;;;;;;;;-0.32;97.94;99557.69;5046972;28;19928;-67
2023/01/19 04:54:29;;;;;;;;;;;;;;;-0.29;97.92;99568.03;5049741;28;20111;-66
2023/01/19 04:56:56;;;;;;;;;;;;;;;-0.25;97.69;99581.03;5046451;28;19939;-68
2023/01/19 04:59:22;;;;;;;;;;;;;;;-0.22;97.52;99584.13;5048388;28;19955;-67
2023/01/19 05:01:48;;;;;;;;;;;;;;;-0.21;97.60;99591.16;5053132;28;20463;-67
2023/01/19 05:04:13;;;;;;;;;;;;;;;-0.21;97.19;99569.66;5057434;28;20397;-66
2023/01/19 05:06:39;;;;;;;;;;;;;;;-0.21;97.12;99577.72;5058720;28;20457;-67
2023/01/19 05:09:07;;;;;;;;;;;;;;;-0.23;97.07;99587.84;5044484;28;20203;-66
2023/01/19 05:11:33;;;;;;;;;;;;;;;-0.22;97.09;99581.44;5041964;28;19929;-66
2023/01/19 05:14:00;;;;;;;;;;;;;;;-0.19;97.22;99572.97;5030372;28;20027;-66
2023/01/19 05:16:26;;;;;;;;;;;;;;;-0.17;97.35;99578.94;5039488;28;20383;-66
2023/01/19 05:18:52;;;;;;;;;;;;;;;-0.15;97.35;99584.13;5043364;28;19929;-66
2023/01/19 05:21:18;;;;;;;;;;;;;;;-0.12;97.34;99582.88;5043238;28;19998;-66
2023/01/19 05:23:44;;;;;;;;;;;;;;;-0.09;97.14;99594.03;5042651;28;19991;-67
2023/01/19 05:26:10;;;;;;;;;;;;;;;-0.11;97.36;99579.16;5044555;28;19928;-66
2023/01/19 05:28:36;;;;;;;;;;;;;;;-0.10;97.42;99591.56;5047386;28;19982;-65
2023/01/19 05:31:04;;;;;;;;;;;;;;;-0.07;97.59;99599.22;5045124;28;19928;-66
2023/01/19 05:33:30;;;;;;;;;;;;;;;-0.05;97.66;99597.13;5045315;28;19936;-67
2023/01/19 05:35:55;;;;;;;;;;;;;;;0.00;97.83;99605.41;5038910;28;19928;-67
2023/01/19 05:38:21;;;;;;;;;;;;;;;0.03;97.56;99612.22;5015733;28;20350;-67
2023/01/19 05:40:47;;;;;;;;;;;;;;;0.03;97.62;99610.38;5035250;28;20367;-67
2023/01/19 05:43:14;;;;;;;;;;;;;;;0.04;97.78;99609.31;5034585;28;19928;-67
2023/01/19 05:45:40;;;;;;;;;;;;;;;0.10;97.78;99604.97;5038043;28;19928;-67
2023/01/19 05:48:07;;;;;;;;;;;;;;;0.12;97.65;99611.78;5039560;28;19928;-67
2023/01/19 05:50:33;;;;;;;;;;;;;;;0.14;97.64;99607.00;5040413;28;20462;-65
2023/01/19 05:52:59;;;;;;;;;;;;;;;0.18;97.48;99628.13;5038104;28;20000;-66
2023/01/19 05:55:25;;;;;;;;;;;;;;;0.18;97.53;99614.69;5042977;28;19935;-65
2023/01/19 05:57:51;;;;;;;;;;;;;;;0.19;97.34;99619.00;5023928;28;19929;-65
2023/01/19 06:00:18;;;;;;;;;;;;;;;0.25;97.49;99620.84;5026115;28;20306;-66
2023/01/19 06:02:45;;;;;;;;;;;;;;;0.27;97.24;99622.31;5030773;28;20435;-66
2023/01/19 06:05:12;;;;;;;;;;;;;;;0.28;97.07;99644.63;5044214;28;19975;-66
2023/01/19 06:07:38;;;;;;;;;;;;;;;0.30;97.16;99639.84;5042434;28;19932;-66
2023/01/19 06:10:04;;;;;;;;;;;;;;;0.32;97.04;99643.19;5046096;28;19929;-65
2023/01/19 06:12:31;;;;;;;;;;;;;;;0.35;97.14;99644.63;5043897;28;19964;-67
2023/01/19 06:14:57;;;;;;;;;;;;;;;0.36;97.11;99641.72;5044276;28;20023;-65
2023/01/19 06:17:23;;;;;;;;;;;;;;;0.39;96.86;99656.59;5011607;28;20040;-65
2023/01/19 06:19:49;;;;;;;;;;;;;;;0.41;97.06;99649.97;5040745;28;20039;-67
2023/01/19 06:22:16;;;;;;;;;;;;;;;0.42;96.80;99643.56;5042330;28;19933;-67
2023/01/19 06:24:41;;;;;;;;;;;;;;;0.45;97.05;99657.63;5044925;28;19935;-66
2023/01/19 06:27:07;;;;;;;;;;;;;;;0.47;96.92;99655.53;5025959;28;19933;-65
2023/01/19 06:29:33;;;;;;;;;;;;;;;0.49;96.83;99669.63;5042888;28;19935;-67
2023/01/19 06:31:59;;;;;;;;;;;;;;;0.52;96.84;99699.63;5043118;28;19929;-67
2023/01/19 06:34:27;;;;;;;;;;;;;;;0.56;96.72;99689.25;5042475;28;20300;-67
2023/01/19 06:36:53;;;;;;;;;;;;;;;0.56;96.66;99673.13;5041657;28;19987;-67
2023/01/19 06:39:21;;;;;;;;;;;;;;;0.61;96.80;99692.13;5044306;28;19929;-67
2023/01/19 06:41:46;;;;;;;;;;;;;;;0.66;96.86;99686.13;5046392;28;19928;-68
2023/01/19 06:44:12;;;;;;;;;;;;;;;0.66;96.83;99675.34;5043490;28;20396;-67
2023/01/19 06:46:38;;;;;;;;;;;;;;;0.67;96.69;99674.31;5009040;28;20470;-67
2023/01/19 06:49:04;;;;;;;;;;;;;;;0.68;96.93;99668.72;5041652;28;19933;-67
2023/01/19 06:51:29;;;;;;;;;;;;;;;0.74;96.82;99676.97;5043530;28;19928;-67
2023/01/19 06:53:55;;;;;;;;;;;;;;;0.73;96.56;99676.16;5040637;28;20015;-67
2023/01/19 06:56:23;;;;;;;;;;;;;;;0.74;96.72;99671.59;5022495;28;19986;-67
2023/01/19 06:58:49;;;;;;;;;;;;;;;0.76;96.58;99682.97;5040796;28;19968;-68
2023/01/19 07:01:15;;;;;;;;;;;;;;;0.75;96.58;99684.84;5043520;28;19936;-67
2023/01/19 07:03:40;;;;;;;;;;;;;;;0.76;96.49;99685.66;5043400;28;19928;-67
2023/01/19 07:06:06;;;;;;;;;;;;;;;0.75;96.36;99690.25;5042030;28;20415;-67
2023/01/19 07:08:32;;;;;;;;;;;;;;;0.77;96.37;99698.94;5043007;28;19929;-67
2023/01/19 07:10:59;;;;;;;;;;;;;;;0.78;96.44;99683.59;5044527;28;19994;-67
2023/01/19 07:13:27;;;;;;;;;;;;;;;0.78;96.63;99689.81;5040993;28;19928;-68
2023/01/19 07:15:53;;;;;;;;;;;;;;;0.80;96.46;99692.31;5042902;28;20513;-67
2023/01/19 07:18:18;;;;;;;;;;;;;;;0.79;96.48;99682.56;5039661;28;19936;-67
2023/01/19 07:20:45;;;;;;;;;;;;;;;0.79;96.42;99688.78;5042422;28;20372;-67
2023/01/19 07:23:11;;;;;;;;;;;;;;;0.80;96.52;99689.59;5045268;28;19932;-67
2023/01/19 07:25:38;;;;;;;;;;;;;;;0.83;96.60;99691.88;5043749;28;20387;-67
2023/01/19 07:28:04;;;;;;;;;;;;;;;0.84;96.23;99705.09;5046650;28;19932;-67
2023/01/19 07:30:31;;;;;;;;;;;;;;;0.85;96.18;99709.44;5044673;28;19933;-68
2023/01/19 07:32:57;;;;;;;;;;;;;;;0.87;96.26;99694.97;5043805;28;19948;-68
2023/01/19 07:35:23;;;;;;;;;;;;;;;0.87;96.25;99694.97;5041740;28;19936;-67
2023/01/19 07:37:49;;;;;;;;;;;;;;;0.88;96.33;99700.13;5044297;28;19951;-67
2023/01/19 07:40:15;;;;;;;;;;;;;;;0.89;96.26;99709.03;5045512;28;19929;-67
2023/01/19 07:42:45;;;;;;;;;;;;;;;0.91;96.43;99729.31;5029320;28;19929;-67
2023/01/19 07:45:11;;;;;;;;;;;;;;;0.90;96.35;99759.16;5006586;28;20478;-67
2023/01/19 07:47:38;;;;;;;;;;;;;;;0.90;96.35;99756.47;5047458;28;19964;-67
2023/01/19 07:50:04;;;;;;;;;;;;;;;0.94;96.39;99757.69;5028567;28;19929;-67
2023/01/19 07:52:30;;;;;;;;;;;;;;;0.95;96.34;99759.34;5046601;28;19971;-68
2023/01/19 07:54:55;;;;;;;;;;;;;;;0.92;96.50;99741.72;5046333;28;19964;-67
2023/01/19 07:57:22;;;;;;;;;;;;;;;0.93;96.30;99746.06;5046874;28;20347;-67
2023/01/19 07:59:48;;;;;;;;;;;;;;;0.94;96.47;99750.44;5045146;28;19933;-67
2023/01/19 08:02:14;;;;;;;;;;;;;;;0.98;96.44;99765.13;5046497;28;20377;-68
2023/01/19 08:04:42;;;;;;;;;;;;;;;0.94;96.18;99750.44;5043660;28;19929;-68
2023/01/19 08:07:08;;;;;;;;;;;;;;;0.95;96.25;99753.94;5045065;28;19934;-67
2023/01/19 08:09:34;;;;;;;;;;;;;;;0.98;96.29;99781.28;5046254;28;19928;-67
2023/01/19 08:12:00;;;;;;;;;;;;;;;0.98;96.40;99793.91;5045755;28;20019;-67
2023/01/19 08:14:26;;;;;;;;;;;;;;;0.95;96.46;99791.66;5027537;28;19929;-68
2023/01/19 08:16:52;;;;;;;;;;;;;;;0.97;96.40;99782.31;5030304;28;19939;-67
2023/01/19 08:19:18;;;;;;;;;;;;;;;0.98;96.46;99775.06;5048070;28;19935;-68
2023/01/19 08:21:45;;;;;;;;;;;;;;;0.98;96.29;99778.59;5045128;28;20019;-68
2023/01/19 08:24:17;;;;;;;;;;;;;;;0.92;96.02;99795.56;5025223;28;19929;-67
2023/01/19 08:26:43;;;;;;;;;;;;;;;0.87;96.32;99802.66;5045829;28;19928;-67
2023/01/19 08:29:09;;;;;;;;;;;;;;;0.88;96.46;99796.25;5047362;28;19928;-67
2023/01/19 08:31:35;;;;;;;;;;;;;;;0.88;96.50;99786.28;5043822;28;19943;-67
2023/01/19 08:34:00;;;;;;;;;;;;;;;0.85;96.25;99809.06;5044999;28;19928;-68
2023/01/19 08:36:26;;;;;;;;;;;;;;;0.90;96.40;99807.63;5047141;28;19929;-67
2023/01/19 08:38:53;;;;;;;;;;;;;;;0.92;96.38;99821.69;5046584;28;20408;-67
2023/01/19 08:41:19;;;;;;;;;;;;;;;0.93;96.34;99816.06;5045493;28;19928;-65
2023/01/19 08:43:45;;;;;;;;;;;;;;;0.96;96.41;99815.69;5028142;28;19928;-66
2023/01/19 08:46:15;;;;;;;;;;;;;;;0.96;96.27;99813.00;5029961;28;19928;-67
2023/01/19 08:48:42;;;;;;;;;;;;;;;1.00;96.21;99816.06;5047364;28;19928;-67
2023/01/19 08:51:08;;;;;;;;;;;;;;;0.99;96.19;99796.41;5046013;28;20323;-66
2023/01/19 08:53:34;;;;;;;;;;;;;;;0.95;96.07;99800.56;5044814;28;19928;-66
2023/01/19 08:56:02;;;;;;;;;;;;;;;1.01;96.31;99803.44;5026503;28;19975;-66
2023/01/19 08:58:28;;;;;;;;;;;;;;;1.01;96.16;99806.94;5046338;28;19940;-66
2023/01/19 09:00:54;;;;;;;;;;;;;;;0.98;96.15;99805.53;5046386;28;20028;-67
2023/01/19 09:03:23;;;;;;;;;;;;;;;1.03;96.03;99790.59;5044667;28;19939;-67
2023/01/19 09:05:49;;;;;;;;;;;;;;;1.02;96.07;99802.41;5047028;28;19933;-67
2023/01/19 09:08:15;;;;;;;;;;;;;;;0.96;95.86;99799.53;5046062;28;19948;-67
2023/01/19 09:10:43;;;;;;;;;;;;;;;0.94;96.09;99803.47;5045628;28;19935;-66
2023/01/19 09:13:11;;;;;;;;;;;;;;;0.93;96.18;99802.63;5046275;28;19940;-67
2023/01/19 09:15:41;;;;;;;;;;;;;;;0.93;96.20;99801.81;5045431;28;19929;-66
2023/01/19 09:18:09;;;;;;;;;;;;;;;0.92;96.36;99803.66;5049188;28;19964;-66
2023/01/19 09:20:37;;;;;;;;;;;;;;;0.92;96.28;99800.16;5043832;28;19951;-66
2023/01/19 09:23:03;;;;;;;;;;;;;;;0.90;96.34;99803.03;5046594;28;19935;-66
2023/01/19 09:25:29;;;;;;;;;;;;;;;0.88;96.46;99791.66;5044312;28;19932;-66
2023/01/19 09:27:55;;;;;;;;;;;;;;;0.90;96.58;99794.97;5025363;28;19990;-66
2023/01/19 09:30:22;;;;;;;;;;;;;;;0.89;96.45;99781.72;5043965;28;19929;-66
2023/01/19 09:32:48;;;;;;;;;;;;;;;0.87;96.65;99779.25;5048990;28;19929;-66
2023/01/19 09:35:14;;;;;;;;;;;;;;;0.84;96.66;99776.97;5047811;28;19929;-66
2023/01/19 09:37:40;;;;;;;;;;;;;;;0.83;96.69;99778.00;5044498;28;19928;-66
2023/01/19 09:40:07;;;;;;;;;;;;;;;0.85;96.83;99760.59;5042472;28;20372;-67
2023/01/19 09:42:38;;;;;;;;;;;;;;;0.87;96.58;99776.53;5043675;28;20009;-66
2023/01/19 09:45:06;;;;;;;;;;;;;;;0.82;96.75;99779.88;5040672;28;19928;-66
2023/01/19 09:47:34;;;;;;;;;;;;;;;0.90;96.80;99794.16;5028302;28;19928;-66
2023/01/19 09:50:02;;;;;;;;;;;;;;;0.92;96.54;99786.69;5041461;28;19935;-66
2023/01/19 09:52:31;;;;;;;;;;;;;;;0.91;96.47;99779.66;5046018;28;19935;-66
2023/01/19 09:54:57;;;;;;;;;;;;;;;0.84;96.53;99790.44;5044268;28;19929;-66
2023/01/19 09:57:24;;;;;;;;;;;;;;;0.82;96.52;99795.22;5025189;28;19960;-66
2023/01/19 09:59:50;;;;;;;;;;;;;;;0.81;96.64;99799.75;5046703;28;19982;-66
2023/01/19 10:02:21;;;;;;;;;;;;;;;0.82;96.62;99789.81;5044818;28;19929;-66
2023/01/19 10:04:55;;;;;;;;;;;;;;;0.82;96.75;99795.22;5027797;28;20257;-66
2023/01/19 10:07:31;;;;;;;;;;;;;;;0.81;96.66;99793.56;5046822;28;20015;-67
2023/01/19 10:10:11;;;;;;;;;;;;;;;0.76;96.73;99807.63;5043913;28;20028;-68
2023/01/19 10:12:51;;;;;;;;;;;;;;;0.76;96.84;99799.56;5042135;28;20414;-67
2023/01/19 10:15:24;;;;;;;;;;;;;;;0.76;96.79;99791.50;5042737;28;19940;-68
2023/01/19 10:17:56;;;;;;;;;;;;;;;0.77;96.94;99798.53;5045672;28;20036;-66
2023/01/19 10:20:26;;;;;;;;;;;;;;;0.78;96.80;99786.72;5045165;28;20396;-66
2023/01/19 10:22:51;;;;;;;;;;;;;;;0.80;96.85;99792.72;5044224;28;19935;-66
2023/01/19 10:25:19;;;;;;;;;;;;;;;0.81;96.73;99791.69;5046244;28;20319;-66
2023/01/19 10:27:45;;;;;;;;;;;;;;;0.77;96.57;99795.00;5042414;28;19929;-66
2023/01/19 10:30:16;;;;;;;;;;;;;;;0.76;96.85;99804.09;5044076;28;20817;-66
2023/01/19 10:32:43;;;;;;;;;;;;;;;0.71;96.93;99791.31;5043432;28;19933;-66
2023/01/19 10:35:13;;;;;;;;;;;;;;;0.55;96.81;99750.34;5045327;28;19935;-66
2023/01/19 10:37:40;;;;;;;;;;;;;;;0.69;97.16;99775.34;5046233;28;19933;-66
2023/01/19 10:40:24;;;;;;;;;;;;;;;0.73;97.23;99789.22;5045004;28;19928;-66
2023/01/19 10:42:50;;;;;;;;;;;;;;;0.72;97.21;99776.81;5046164;28;19933;-66
2023/01/19 10:45:16;;;;;;;;;;;;;;;0.72;97.22;99774.13;5043211;28;19929;-66
2023/01/19 10:47:43;;;;;;;;;;;;;;;0.76;97.22;99788.78;5045440;28;20479;-66
2023/01/19 10:50:22;;;;;;;;;;;;;;;0.81;97.28;99785.47;5045465;28;19937;-66
2023/01/19 10:52:51;;;;;;;;;;;;;;;0.79;96.83;99788.38;5043687;28;20023;-66
2023/01/19 10:55:24;;;;;;;;;;;;;;;0.78;96.95;99802.88;5044727;28;19935;-66
2023/01/19 10:57:51;;;;;;;;;;;;;;;0.75;96.64;99784.44;5045126;28;19933;-66
2023/01/19 11:00:28;;;;;;;;;;;;;;;0.66;96.92;99785.69;5047764;28;19979;-66
2023/01/19 11:02:54;;;;;;;;;;;;;;;0.66;97.01;99786.53;5029637;28;19928;-66
2023/01/19 11:05:22;;;;;;;;;;;;;;;0.64;97.16;99787.78;5049043;28;20053;-66
2023/01/19 11:07:50;;;;;;;;;;;;;;;0.65;97.00;99797.50;5047168;28;19937;-66
2023/01/19 11:10:21;;;;;;;;;;;;;;;0.66;96.91;99788.38;5043668;28;19929;-68
2023/01/19 11:12:56;;;;;;;;;;;;;;;0.68;96.83;99803.31;5047412;28;19990;-66
2023/01/19 11:15:22;;;;;;;;;;;;;;;0.66;96.80;99797.31;5049364;28;20482;-67
2023/01/19 11:17:49;;;;;;;;;;;;;;;0.61;96.87;99809.72;5048659;28;19968;-68
2023/01/19 11:20:18;;;;;;;;;;;;;;;0.55;96.99;99814.91;5047688;28;19928;-68
2023/01/19 11:22:44;;;;;;;;;;;;;;;0.51;96.85;99823.63;5045779;28;19975;-68
2023/01/19 11:25:21;;;;;;;;;;;;;;;0.49;97.09;99814.94;5045367;28;19929;-68
2023/01/19 11:27:49;;;;;;;;;;;;;;;0.51;96.93;99818.22;5045781;28;19929;-67
2023/01/19 11:30:17;;;;;;;;;;;;;;;0.49;97.15;99807.66;5046214;28;20027;-68
2023/01/19 11:32:44;;;;;;;;;;;;;;;0.47;97.09;99816.97;5048345;28;20031;-67
2023/01/19 11:35:28;;;;;;;;;;;;;;;0.45;96.93;99810.97;5048916;28;20423;-66
2023/01/19 11:38:04;;;;;;;;;;;;;;;0.40;97.03;99819.69;5050680;28;19925;-66
2023/01/19 11:40:32;;;;;;;;;;;;;;;0.45;97.09;99824.44;5048416;28;20027;-68
2023/01/19 11:42:58;;;;;;;;;;;;;;;0.43;97.01;99832.72;5049571;28;20407;-67
2023/01/19 11:45:25;;;;;;;;;;;;;;;0.39;96.81;99832.31;5049335;28;19939;-66
2023/01/19 11:47:55;;;;;;;;;;;;;;;0.39;97.13;99826.91;5048860;28;20453;-66
2023/01/19 11:50:22;;;;;;;;;;;;;;;0.39;97.03;99832.31;5046053;28;19933;-65
2023/01/19 11:52:52;;;;;;;;;;;;;;;0.36;97.07;99837.25;5047633;28;20007;-66
2023/01/19 11:55:23;;;;;;;;;;;;;;;0.40;97.07;99836.66;5047540;28;19929;-66
2023/01/19 11:57:52;;;;;;;;;;;;;;;0.42;96.91;99817.63;5047939;28;19937;-66
2023/01/19 12:00:22;;;;;;;;;;;;;;;0.41;97.02;99829.41;5044771;28;20445;-66
2023/01/19 12:02:52;;;;;;;;;;;;;;;0.42;97.04;99839.94;5047287;28;20036;-66
2023/01/19 12:05:19;;;;;;;;;;;;;;;0.43;96.70;99832.72;5046599;28;19963;-66
2023/01/19 12:07:46;;;;;;;;;;;;;;;0.40;96.74;99833.13;5029465;28;19928;-66
2023/01/19 12:10:19;;;;;;;;;;;;;;;0.36;96.65;99856.09;5047856;28;19967;-66
2023/01/19 12:12:46;;;;;;;;;;;;;;;0.44;96.92;99855.06;5027946;28;19928;-67
2023/01/19 12:15:21;;;;;;;;;;;;;;;0.46;96.47;99850.28;5047657;28;19935;-66
2023/01/19 12:17:48;;;;;;;;;;;;;;;0.42;96.51;99861.47;5043620;28;19936;-65
2023/01/19 12:20:22;;;;;;;;;;;;;;;0.49;96.47;99871.44;5047820;28;19929;-66
2023/01/19 12:22:58;;;;;;;;;;;;;;;0.50;96.11;99855.06;5046065;28;19929;-66
2023/01/19 12:25:32;;;;;;;;;;;;;;;0.48;95.85;99869.78;5045372;28;19983;-66
2023/01/19 12:27:58;;;;;;;;;;;;;;;0.46;95.84;99885.28;5047279;28;19954;-66
2023/01/19 12:30:26;;;;;;;;;;;;;;;0.36;95.83;99885.69;5047163;28;19928;-66
2023/01/19 12:33:07;;;;;;;;;;;;;;;0.33;96.10;99886.09;5043607;28;20384;-66
2023/01/19 12:35:51;;;;;;;;;;;;;;;0.33;95.95;99881.56;5044629;28;19928;-66
2023/01/19 12:38:32;;;;;;;;;;;;;;;0.36;96.18;99883.84;5044451;28;19924;-66
2023/01/19 12:41:13;;;;;;;;;;;;;;;0.42;95.91;99890.25;5045691;28;20184;-66
2023/01/19 12:43:38;;;;;;;;;;;;;;;0.40;95.91;99903.09;5041862;28;19940;-66
2023/01/19 12:46:18;;;;;;;;;;;;;;;0.39;95.97;99890.66;5047001;28;19929;-66
2023/01/19 12:48:44;;;;;;;;;;;;;;;0.37;95.75;99909.69;5046859;28;19936;-66
2023/01/19 12:51:20;;;;;;;;;;;;;;;0.32;95.84;99893.34;5012292;28;19929;-65
2023/01/19 12:53:50;;;;;;;;;;;;;;;0.27;95.95;99902.03;5046918;28;20387;-67
2023/01/19 12:56:16;;;;;;;;;;;;;;;0.29;95.94;99904.50;5046516;28;19928;-66
2023/01/19 12:58:46;;;;;;;;;;;;;;;0.27;96.09;99904.72;5046996;28;19929;-68
2023/01/19 13:01:13;;;;;;;;;;;;;;;0.26;96.04;99878.00;5044316;28;19936;-68
2023/01/19 13:03:44;;;;;;;;;;;;;;;0.25;96.04;99887.13;5046552;28;19929;-67